Time;durP1;ratioP1;P1;durP2;ratioP2;P2;SDS_P1;SDS_P2;PMS_P1;PMS_P2;Temp;Humidity;BMP_temperature;BMP_pressure;BME280_temperature;BME280_humidity;BME280_pressure;Samples;Min_cycle;Max_cycle;Signal;HPM_P1;HPM_P2
2024/04/22 00:01:20;;;;;;;;;2.00;2.00;;;;;2.72;78.29;100720.57;112418;232;169202;-57
2024/04/22 00:03:57;;;;;;;;;4.00;3.00;;;;;2.71;78.29;100717.98;112552;232;40691;-56
2024/04/22 00:06:31;;;;;;;;;4.00;3.00;;;;;2.70;78.29;100714.52;112509;236;40228;-56
2024/04/22 00:09:15;;;;;;;;;4.00;4.00;;;;;2.68;78.35;100711.83;112362;234;169251;-56
2024/04/22 00:11:55;;;;;;;;;3.00;2.00;;;;;2.69;78.47;100708.55;112581;236;41331;-56
2024/04/22 00:14:35;;;;;;;;;4.00;3.00;;;;;2.62;78.42;100709.54;112344;232;169260;-59
2024/04/22 00:17:10;;;;;;;;;2.00;2.00;;;;;2.60;78.44;100709.69;112525;232;39660;-59
2024/04/22 00:19:45;;;;;;;;;5.00;3.00;;;;;2.61;78.42;100708.50;112408;232;169230;-57
2024/04/22 00:22:27;;;;;;;;;4.00;3.00;;;;;2.60;78.36;100706.14;112555;232;39855;-56
2024/04/22 00:25:03;;;;;;;;;4.00;4.00;;;;;2.62;78.26;100705.03;112530;232;169305;-59
2024/04/22 00:27:40;;;;;;;;;3.00;2.25;;;;;2.61;78.25;100698.40;112536;236;41000;-60
2024/04/22 00:30:19;;;;;;;;;2.00;1.00;;;;;2.56;78.19;100695.42;112667;236;40548;-58
2024/04/22 00:32:55;;;;;;;;;1.00;1.00;;;;;2.51;78.41;100693.20;112369;234;169021;-57
2024/04/22 00:35:39;;;;;;;;;2.00;2.00;;;;;2.53;78.40;100692.52;112713;236;39572;-56
2024/04/22 00:38:24;;;;;;;;;3.00;2.00;;;;;2.50;78.46;100687.50;112510;232;169234;-60
2024/04/22 00:40:59;;;;;;;;;2.00;2.00;;;;;2.51;78.41;100690.21;112660;232;41959;-60
2024/04/22 00:43:36;;;;;;;;;2.00;2.00;;;;;2.56;78.22;100690.67;112367;237;169769;-58
2024/04/22 00:46:14;;;;;;;;;5.00;4.00;;;;;2.52;78.23;100690.27;112643;236;40752;-58
2024/04/22 00:48:57;;;;;;;;;5.00;3.00;;;;;2.54;78.30;100689.02;112757;232;40745;-61
2024/04/22 00:51:35;;;;;;;;;2.50;2.00;;;;;2.51;78.18;100683.77;112508;236;39986;-60
2024/04/22 00:54:16;;;;;;;;;5.00;4.00;;;;;2.50;78.16;100684.10;112676;232;39787;-59
2024/04/22 00:56:58;;;;;;;;;4.00;3.00;;;;;2.55;78.14;100693.45;112385;233;168446;-60
2024/04/22 00:59:37;;;;;;;;;4.00;3.00;;;;;2.49;77.98;100696.22;112638;236;41681;-58
2024/04/22 01:02:11;;;;;;;;;4.00;3.00;;;;;2.45;77.94;100694.77;112379;233;168553;-59
2024/04/22 01:04:46;;;;;;;;;3.00;3.00;;;;;2.43;77.90;100687.39;112623;233;39947;-61
2024/04/22 01:07:26;;;;;;;;;2.00;2.00;;;;;2.33;77.83;100684.20;112461;236;168658;-60
2024/04/22 01:10:07;;;;;;;;;3.50;2.00;;;;;2.29;77.83;100685.14;112557;232;40390;-59
2024/04/22 01:12:47;;;;;;;;;4.00;3.00;;;;;2.30;78.01;100685.57;112675;232;40043;-59
2024/04/22 01:15:22;;;;;;;;;4.00;2.67;;;;;2.28;77.98;100682.91;112632;233;40394;-56
2024/04/22 01:17:56;;;;;;;;;5.00;3.50;;;;;2.28;77.86;100686.45;113009;232;40469;-56
2024/04/22 01:20:37;;;;;;;;;3.00;3.00;;;;;2.25;78.05;100680.20;112497;235;169294;-57
2024/04/22 01:23:19;;;;;;;;;4.00;3.00;;;;;2.23;77.95;100687.42;112578;232;41108;-56
2024/04/22 01:26:03;;;;;;;;;5.50;4.00;;;;;2.26;78.13;100684.11;112445;232;169197;-57
2024/04/22 01:28:37;;;;;;;;;5.00;4.00;;;;;2.27;78.09;100685.99;112591;232;40363;-57
2024/04/22 01:31:17;;;;;;;;;3.00;2.00;;;;;2.30;78.17;100681.81;112296;234;169472;-56
2024/04/22 01:33:58;;;;;;;;;3.00;3.00;;;;;2.30;78.25;100680.80;112497;236;41948;-58
2024/04/22 01:36:34;;;;;;;;;3.00;3.00;;;;;2.28;78.29;100678.31;112564;236;40188;-58
2024/04/22 01:39:11;;;;;;;;;5.00;4.00;;;;;2.29;78.35;100677.83;112378;233;169196;-57
2024/04/22 01:41:57;;;;;;;;;1.00;1.00;;;;;2.26;78.31;100676.84;112602;232;40854;-57
2024/04/22 01:44:34;;;;;;;;;2.00;2.00;;;;;2.27;78.29;100680.68;112359;233;169232;-59
2024/04/22 01:47:11;;;;;;;;;3.00;2.00;;;;;2.28;78.34;100678.82;112601;232;40418;-60
2024/04/22 01:49:53;;;;;;;;;2.00;2.00;;;;;2.28;78.24;100674.70;112427;236;169285;-59
2024/04/22 01:52:31;;;;;;;;;3.50;2.00;;;;;2.28;78.13;100669.56;112553;232;40771;-59
2024/04/22 01:55:06;;;;;;;;;2.00;1.00;;;;;2.33;78.15;100670.04;112455;236;170101;-54
2024/04/22 01:57:43;;;;;;;;;3.00;2.00;;;;;2.32;78.22;100669.78;112527;232;40750;-53
2024/04/22 02:00:19;;;;;;;;;4.00;3.00;;;;;2.34;78.18;100674.59;112702;232;40461;-60
2024/04/22 02:03:02;;;;;;;;;3.00;2.00;;;;;2.38;78.12;100669.77;112455;232;169161;-59
2024/04/22 02:05:39;;;;;;;;;4.00;3.00;;;;;2.41;78.11;100669.35;112707;232;39825;-56
2024/04/22 02:08:16;;;;;;;;;2.00;1.00;;;;;2.47;78.14;100668.50;112434;232;168846;-57
2024/04/22 02:10:59;;;;;;;;;2.00;2.00;;;;;2.43;78.09;100670.08;112548;235;41537;-58
2024/04/22 02:13:33;;;;;;;;;4.00;3.00;;;;;2.41;78.13;100667.27;112352;234;169841;-58
2024/04/22 02:16:08;;;;;;;;;4.00;3.00;;;;;2.42;78.10;100663.26;112545;232;39821;-59
2024/04/22 02:18:42;;;;;;;;;3.67;3.00;;;;;2.43;78.20;100662.67;112509;235;40340;-59
2024/04/22 02:21:16;;;;;;;;;3.00;3.00;;;;;2.40;78.21;100660.17;112510;232;168978;-59
2024/04/22 02:23:50;;;;;;;;;2.00;2.00;;;;;2.42;78.22;100659.48;112910;231;40056;-56
2024/04/22 02:26:26;;;;;;;;;2.00;1.67;;;;;2.40;78.23;100660.55;112571;232;169190;-56
2024/04/22 02:29:04;;;;;;;;;1.00;1.00;;;;;2.41;78.24;100658.37;112834;232;40547;-54
2024/04/22 02:31:41;;;;;;;;;3.00;2.00;;;;;2.42;78.22;100653.25;112635;231;169492;-54
2024/04/22 02:34:26;;;;;;;;;4.00;3.00;;;;;2.39;78.13;100653.91;112629;232;40041;-54
2024/04/22 02:37:01;;;;;;;;;3.00;2.00;;;;;2.37;78.29;100657.41;112418;236;169489;-55
2024/04/22 02:39:38;;;;;;;;;3.00;3.00;;;;;2.39;78.44;100651.59;112503;233;41104;-54
2024/04/22 02:42:13;;;;;;;;;3.00;2.00;;;;;2.41;78.43;100653.73;112619;232;40102;-55
2024/04/22 02:44:49;;;;;;;;;2.00;1.00;;;;;2.40;78.44;100652.71;112403;233;169346;-58
2024/04/22 02:47:23;;;;;;;;;4.00;3.00;;;;;2.39;78.61;100647.99;112701;232;41571;-57
2024/04/22 02:50:01;;;;;;;;;3.00;3.00;;;;;2.42;78.63;100646.36;112494;236;169181;-55
2024/04/22 02:52:40;;;;;;;;;3.00;2.00;;;;;2.42;78.71;100641.06;112650;233;40362;-55
2024/04/22 02:55:19;;;;;;;;;2.00;2.00;;;;;2.42;78.65;100641.52;112423;232;169318;-55
2024/04/22 02:57:55;;;;;;;;;2.00;2.00;;;;;2.42;78.60;100637.33;112558;236;39750;-54
2024/04/22 03:00:32;;;;;;;;;4.00;3.00;;;;;2.41;78.68;100633.67;112599;232;42217;-57
2024/04/22 03:03:09;;;;;;;;;5.00;4.00;;;;;2.42;78.62;100634.85;112292;236;169101;-57
2024/04/22 03:05:43;;;;;;;;;3.00;2.00;;;;;2.39;78.52;100635.75;112675;232;41211;-59
2024/04/22 03:08:20;;;;;;;;;4.00;3.00;;;;;2.40;78.73;100635.17;112369;232;169328;-55
2024/04/22 03:11:00;;;;;;;;;3.00;2.00;;;;;2.40;78.68;100635.85;112488;234;39805;-55
2024/04/22 03:13:37;;;;;;;;;4.00;3.00;;;;;2.39;78.88;100639.69;112401;232;169367;-55
2024/04/22 03:16:11;;;;;;;;;2.00;1.50;;;;;2.36;79.06;100642.64;112731;232;40851;-54
2024/04/22 03:18:48;;;;;;;;;4.00;2.50;;;;;2.30;78.94;100642.61;112945;232;40257;-55
2024/04/22 03:21:22;;;;;;;;;2.00;1.00;;;;;2.27;79.02;100646.40;112474;236;41538;-55
2024/04/22 03:23:56;;;;;;;;;6.33;5.00;;;;;2.21;79.09;100644.40;112702;232;40915;-58
2024/04/22 03:26:38;;;;;;;;;5.00;4.00;;;;;2.25;79.23;100649.41;112542;232;169310;-57
2024/04/22 03:29:17;;;;;;;;;3.00;2.00;;;;;2.24;79.23;100645.23;112719;232;42456;-58
2024/04/22 03:31:55;;;;;;;;;5.00;4.00;;;;;2.21;79.31;100641.42;112465;233;169365;-57
2024/04/22 03:34:34;;;;;;;;;3.00;2.00;;;;;2.19;79.23;100639.42;112648;232;41239;-58
2024/04/22 03:37:14;;;;;;;;;2.00;2.00;;;;;2.21;79.35;100635.51;112516;232;169468;-59
2024/04/22 03:39:48;;;;;;;;;1.00;1.00;;;;;2.20;79.31;100632.46;112528;232;40389;-54
2024/04/22 03:42:23;;;;;;;;;4.00;3.00;;;;;2.16;79.25;100633.31;112533;236;40572;-54
2024/04/22 03:45:03;;;;;;;;;3.00;2.00;;;;;2.23;79.46;100629.55;112341;232;169398;-54
2024/04/22 03:50:40;;;;;;;;;3.00;3.00;;;;;2.21;79.40;100633.09;112310;234;169533;-56
2024/04/22 03:53:20;;;;;;;;;2.00;2.00;;;;;2.21;79.44;100636.23;112476;236;40891;-53
2024/04/22 03:55:55;;;;;;;;;1.00;1.00;;;;;2.19;79.49;100635.13;112313;232;169543;-56
2024/04/22 03:58:33;;;;;;;;;3.00;2.00;;;;;2.19;79.70;100639.23;112482;232;40597;-56
2024/04/22 04:01:13;;;;;;;;;2.00;1.00;;;;;2.20;79.84;100636.85;112368;234;169801;-55
2024/04/22 04:03:52;;;;;;;;;3.00;2.00;;;;;2.22;79.82;100636.02;112490;236;40421;-55
2024/04/22 04:06:35;;;;;;;;;4.75;2.75;;;;;2.26;79.81;100636.86;112560;232;40050;-55
2024/04/22 04:09:18;;;;;;;;;2.00;2.00;;;;;2.30;80.00;100636.20;112421;236;169838;-58
2024/04/22 04:11:57;;;;;;;;;5.00;4.00;;;;;2.35;79.89;100635.55;112640;236;40918;-59
2024/04/22 04:14:39;;;;;;;;;4.50;3.00;;;;;2.42;80.00;100637.28;112389;232;170489;-56
2024/04/22 04:17:15;;;;;;;;;4.33;3.00;;;;;2.48;80.03;100644.45;112915;232;39862;-56
2024/04/22 04:19:54;;;;;;;;;2.00;2.00;;;;;2.53;79.89;100647.17;112650;235;169652;-55
2024/04/22 04:22:31;;;;;;;;;4.00;3.00;;;;;2.56;79.78;100650.43;112500;232;39754;-55
2024/04/22 04:25:08;;;;;;;;;3.00;2.00;;;;;2.63;79.82;100648.46;112345;234;169713;-55
2024/04/22 04:27:45;;;;;;;;;3.00;2.50;;;;;2.62;79.81;100653.66;112480;232;40984;-55
2024/04/22 04:30:21;;;;;;;;;3.00;2.00;;;;;2.66;79.80;100657.05;112540;232;39951;-56
2024/04/22 04:33:09;;;;;;;;;3.00;2.00;;;;;2.71;79.82;100654.10;112320;232;170129;-56
2024/04/22 04:35:57;;;;;;;;;3.00;3.00;;;;;2.80;79.90;100656.89;112552;236;40223;-58
2024/04/22 04:38:36;;;;;;;;;5.00;4.00;;;;;2.84;79.93;100657.42;112345;236;171436;-54
2024/04/22 04:41:20;;;;;;;;;6.67;4.00;;;;;2.90;79.75;100664.91;112494;236;40154;-54
2024/04/22 04:44:01;;;;;;;;;4.00;4.00;;;;;2.94;79.84;100663.81;112378;236;169514;-58
2024/04/22 04:46:38;;;;;;;;;4.00;3.00;;;;;2.99;79.72;100659.84;112611;232;40242;-58
2024/04/22 04:49:31;;;;;;;;;4.00;3.00;;;;;3.02;79.79;100665.80;112436;232;170087;-60
2024/04/22 04:52:08;;;;;;;;;3.00;2.00;;;;;2.92;79.74;100672.51;112579;234;40503;-57
2024/04/22 04:54:43;;;;;;;;;4.00;3.00;;;;;2.86;79.54;100675.53;112578;232;39891;-55
2024/04/22 04:57:27;;;;;;;;;2.00;2.00;;;;;2.90;79.39;100678.05;112361;234;169954;-54
2024/04/22 05:00:09;;;;;;;;;4.00;2.00;;;;;2.93;79.51;100678.66;112490;232;40769;-56
2024/04/22 05:02:45;;;;;;;;;3.25;3.00;;;;;3.03;79.48;100680.71;112335;237;169628;-55
2024/04/22 05:05:21;;;;;;;;;6.00;4.00;;;;;3.08;79.34;100683.63;112516;236;41255;-55
2024/04/22 05:07:57;;;;;;;;;5.00;4.00;;;;;3.07;79.37;100689.95;112406;232;170300;-54
2024/04/22 05:10:39;;;;;;;;;4.00;4.00;;;;;2.99;79.39;100691.48;112575;232;41242;-58
2024/04/22 05:13:15;;;;;;;;;6.00;4.00;;;;;3.04;79.18;100689.29;112509;232;169685;-55
2024/04/22 05:15:52;;;;;;;;;4.00;3.00;;;;;3.10;79.30;100684.65;112534;233;40166;-58
2024/04/22 05:18:31;;;;;;;;;7.00;5.00;;;;;3.09;79.09;100680.63;112670;232;39737;-57
2024/04/22 05:21:09;;;;;;;;;5.00;4.00;;;;;3.17;79.31;100680.10;112382;232;169420;-56
2024/04/22 05:23:48;;;;;;;;;6.67;4.33;;;;;3.22;79.35;100681.77;112675;235;39577;-57
2024/04/22 05:26:23;;;;;;;;;5.00;4.00;;;;;3.22;79.26;100681.98;112399;232;169601;-58
2024/04/22 05:29:01;;;;;;;;;3.00;3.00;;;;;3.28;79.25;100684.33;112638;232;40350;-55
2024/04/22 05:31:41;;;;;;;;;5.00;3.00;;;;;3.36;79.19;100678.61;112406;232;169550;-56
2024/04/22 05:37:17;;;;;;;;;4.00;4.00;;;;;3.59;79.05;100680.81;112451;236;169890;-53
2024/04/22 05:39:55;;;;;;;;;4.00;3.00;;;;;3.63;79.19;100679.13;112563;232;40636;-55
2024/04/22 05:42:31;;;;;;;;;6.00;4.00;;;;;3.55;79.05;100681.27;112606;232;40519;-55
2024/04/22 05:45:08;;;;;;;;;6.00;4.00;;;;;3.60;79.09;100681.09;112466;232;169727;-58
2024/04/22 05:47:46;;;;;;;;;6.00;4.00;;;;;3.62;79.09;100681.95;112895;232;41817;-55
2024/04/22 05:50:28;;;;;;;;;8.33;6.00;;;;;3.71;79.32;100682.40;112552;232;169328;-55
2024/04/22 05:53:04;;;;;;;;;4.00;3.00;;;;;3.79;79.08;100680.20;112563;234;40504;-58
2024/04/22 05:55:40;;;;;;;;;7.00;4.00;;;;;3.93;79.10;100680.36;112516;232;169878;-58
2024/04/22 05:58:21;;;;;;;;;14.00;10.67;;;;;4.06;79.08;100679.98;112805;235;40234;-56
2024/04/22 06:00:59;;;;;;;;;6.00;4.00;;;;;4.21;78.78;100676.84;112959;235;41697;-56
2024/04/22 06:03:41;;;;;;;;;6.67;5.67;;;;;4.36;78.76;100674.89;112412;234;169395;-58
2024/04/22 06:06:16;;;;;;;;;6.00;4.00;;;;;4.48;78.75;100670.33;112692;235;41984;-58
2024/04/22 06:08:50;;;;;;;;;5.00;3.00;;;;;4.48;78.51;100670.16;112386;233;169793;-57
2024/04/22 06:11:34;;;;;;;;;6.00;4.00;;;;;4.43;78.22;100669.41;112570;232;40431;-56
2024/04/22 06:14:13;;;;;;;;;5.00;4.00;;;;;4.41;77.93;100668.73;112394;233;169023;-55
2024/04/22 06:16:51;;;;;;;;;6.33;4.33;;;;;4.57;77.83;100671.44;112551;232;40493;-55
2024/04/22 06:19:28;;;;;;;;;4.00;3.00;;;;;4.80;77.81;100668.00;112440;232;169070;-54
2024/04/22 06:22:04;;;;;;;;;5.00;4.00;;;;;4.99;77.64;100665.95;112535;233;40747;-57
2024/04/22 06:24:38;;;;;;;;;5.00;3.00;;;;;5.10;77.59;100666.89;112660;232;40397;-56
2024/04/22 06:27:15;;;;;;;;;3.25;2.75;;;;;5.41;77.53;100666.03;112353;234;170137;-55
2024/04/22 06:29:53;;;;;;;;;4.00;3.25;;;;;5.69;77.16;100663.05;112684;232;42434;-53
2024/04/22 06:32:34;;;;;;;;;5.00;3.00;;;;;5.79;76.77;100667.19;112422;236;169223;-54
2024/04/22 06:35:09;;;;;;;;;3.00;3.00;;;;;5.73;76.36;100663.85;112643;233;40621;-56
2024/04/22 06:37:49;;;;;;;;;6.00;5.00;;;;;5.91;76.06;100666.54;112409;236;169369;-57
2024/04/22 06:40:24;;;;;;;;;7.00;5.00;;;;;6.16;75.96;100669.25;112552;236;40097;-54
2024/04/22 06:43:06;;;;;;;;;5.00;3.00;;;;;6.45;75.74;100668.76;112599;232;39880;-58
2024/04/22 06:45:42;;;;;;;;;4.00;4.00;;;;;6.52;75.27;100671.20;112489;235;40829;-55
2024/04/22 06:48:21;;;;;;;;;6.00;5.00;;;;;6.43;74.95;100672.70;111947;236;804533;-58
2024/04/22 06:51:00;;;;;;;;;5.00;4.25;;;;;6.32;74.77;100671.98;112370;233;168678;-58
2024/04/22 06:53:45;;;;;;;;;5.67;4.00;;;;;6.54;74.52;100673.19;112923;232;40139;-57
2024/04/22 06:56:19;;;;;;;;;7.00;5.00;;;;;6.81;74.10;100668.80;112582;231;169020;-57
2024/04/22 06:58:58;;;;;;;;;4.00;4.00;;;;;7.27;73.67;100662.13;112578;232;40173;-56
2024/04/22 07:01:40;;;;;;;;;5.00;5.00;;;;;7.64;73.16;100664.04;112413;232;169271;-55
2024/04/22 07:04:21;;;;;;;;;7.00;6.00;;;;;7.94;72.58;100667.90;112471;236;41625;-58
2024/04/22 07:06:57;;;;;;;;;6.00;5.67;;;;;7.80;71.68;100673.18;112590;232;39901;-59
2024/04/22 07:09:36;;;;;;;;;5.33;5.00;;;;;7.43;71.29;100675.75;112322;236;172044;-59
2024/04/22 07:12:11;;;;;;;;;6.25;4.00;;;;;7.09;71.03;100680.58;112534;236;40451;-56
2024/04/22 07:14:58;;;;;;;;;6.00;4.00;;;;;6.80;70.89;100681.04;112412;236;183377;-60
2024/04/22 07:17:34;;;;;;;;;7.00;5.00;;;;;6.90;71.12;100681.63;112600;234;43431;-60
2024/04/22 07:20:11;;;;;;;;;8.00;6.00;;;;;7.01;71.09;100679.16;112419;232;169032;-57
2024/04/22 07:22:46;;;;;;;;;6.00;5.00;;;;;7.16;70.80;100676.55;112589;232;40072;-55
2024/04/22 07:25:21;;;;;;;;;6.00;5.00;;;;;7.14;70.79;100676.35;112465;236;169132;-59
2024/04/22 07:27:58;;;;;;;;;6.00;4.00;;;;;7.16;70.67;100672.16;112529;233;40353;-60
2024/04/22 07:30:37;;;;;;;;;6.00;5.00;;;;;7.08;70.60;100674.63;112528;232;40624;-57
2024/04/22 07:33:14;;;;;;;;;6.00;5.50;;;;;7.00;70.50;100672.61;112321;234;168748;-58
2024/04/22 07:35:58;;;;;;;;;8.00;7.00;;;;;7.01;70.19;100674.30;112589;232;40798;-57
2024/04/22 07:38:37;;;;;;;;;7.00;6.00;;;;;7.24;70.33;100676.53;112260;236;168821;-55
2024/04/22 07:41:14;;;;;;;;;8.00;7.00;;;;;7.36;69.89;100676.54;112555;236;40150;-56
2024/04/22 07:43:52;;;;;;;;;7.25;7.00;;;;;7.45;69.76;100677.36;112360;232;169052;-55
2024/04/22 07:46:26;;;;;;;;;7.50;6.00;;;;;7.66;69.64;100678.29;112509;232;40861;-55
2024/04/22 07:49:01;;;;;;;;;7.50;7.00;;;;;7.71;69.44;100676.00;112509;232;41758;-56
2024/04/22 07:51:41;;;;;;;;;7.00;5.50;;;;;7.65;69.11;100674.63;112360;234;168846;-56
2024/04/22 07:54:17;;;;;;;;;9.00;7.00;;;;;7.60;68.96;100679.63;112563;236;41098;-60
2024/04/22 07:56:53;;;;;;;;;6.00;5.00;;;;;7.65;69.00;100682.19;112429;232;169405;-58
2024/04/22 07:59:29;;;;;;;;;8.00;6.50;;;;;7.63;68.52;100681.11;112560;234;40853;-56
2024/04/22 08:02:04;;;;;;;;;8.50;7.00;;;;;7.47;68.49;100685.15;112395;232;169077;-55
2024/04/22 08:04:40;;;;;;;;;7.00;5.50;;;;;7.40;68.43;100687.08;112534;232;40375;-59
2024/04/22 08:07:19;;;;;;;;;8.00;6.00;;;;;7.38;68.35;100688.17;112553;236;41293;-59
2024/04/22 08:09:57;;;;;;;;;7.00;5.00;;;;;7.65;68.50;100686.23;112552;234;40340;-57
2024/04/22 08:12:32;;;;;;;;;6.00;5.00;;;;;7.70;67.90;100685.73;112539;232;40534;-59
2024/04/22 08:15:06;;;;;;;;;6.00;5.00;;;;;7.64;67.22;100685.52;112345;233;169540;-56
2024/04/22 08:17:42;;;;;;;;;5.00;4.00;;;;;7.36;66.71;100693.77;112520;236;40408;-55
2024/04/22 08:20:22;;;;;;;;;5.00;5.00;;;;;7.04;66.78;100692.95;112410;232;169072;-54
2024/04/22 08:22:59;;;;;;;;;5.00;4.00;;;;;6.93;66.91;100696.84;112516;234;39827;-55
2024/04/22 08:25:37;;;;;;;;;5.00;4.00;;;;;6.92;66.76;100694.98;112743;235;169167;-57
2024/04/22 08:28:24;;;;;;;;;5.00;4.00;;;;;7.07;66.82;100687.25;112500;233;40284;-56
2024/04/22 08:31:09;;;;;;;;;4.00;3.00;;;;;7.27;66.77;100683.79;112559;232;40196;-53
2024/04/22 08:33:46;;;;;;;;;4.00;3.00;;;;;7.34;66.73;100676.80;112405;232;168738;-57
2024/04/22 08:36:27;;;;;;;;;4.00;3.33;;;;;7.26;66.21;100685.64;112525;236;40110;-57
2024/04/22 08:39:02;;;;;;;;;4.00;4.00;;;;;7.05;65.93;100689.27;112357;234;170130;-57
2024/04/22 08:41:39;;;;;;;;;5.00;4.00;;;;;6.64;65.99;100691.84;112641;232;40050;-58
2024/04/22 08:44:12;;;;;;;;;4.00;3.00;;;;;6.45;65.88;100695.19;112491;236;169046;-57
2024/04/22 08:46:46;;;;;;;;;4.00;3.00;;;;;6.23;65.62;100696.38;112784;232;41476;-58
2024/04/22 08:49:28;;;;;;;;;4.00;3.00;;;;;6.05;65.81;100696.22;112966;235;40320;-59
2024/04/22 08:52:13;;;;;;;;;5.00;4.00;;;;;5.99;66.15;100697.75;112543;236;42271;-59
2024/04/22 08:54:53;;;;;;;;;3.00;2.50;;;;;6.17;66.03;100703.05;112569;236;41261;-55
2024/04/22 08:57:31;;;;;;;;;4.00;3.00;;;;;6.13;66.06;100705.14;112366;232;169725;-56
2024/04/22 09:00:11;;;;;;;;;3.00;2.00;;;;;6.18;66.07;100709.94;112642;232;40808;-54
2024/04/22 09:02:47;;;;;;;;;2.00;2.00;;;;;6.27;65.89;100712.18;112390;232;169048;-54
2024/04/22 09:05:28;;;;;;;;;2.00;2.00;;;;;6.33;65.64;100717.39;112582;232;39753;-55
2024/04/22 09:08:07;;;;;;;;;5.00;4.00;;;;;6.26;64.94;100719.88;112457;233;169258;-56
2024/04/22 09:10:54;;;;;;;;;2.00;2.00;;;;;6.24;65.13;100724.36;112573;233;41739;-55
2024/04/22 09:13:37;;;;;;;;;1.00;1.00;;;;;6.42;64.89;100729.09;112447;232;170296;-56
2024/04/22 09:16:19;;;;;;;;;4.00;3.00;;;;;6.49;64.92;100729.34;112516;233;40005;-57
2024/04/22 09:18:55;;;;;;;;;2.00;2.00;;;;;6.60;64.96;100732.45;112477;236;40411;-56
2024/04/22 09:21:29;;;;;;;;;2.00;2.00;;;;;6.66;64.72;100734.45;112303;233;168667;-54
2024/04/22 09:24:06;;;;;;;;;3.00;3.00;;;;;6.46;64.55;100735.66;112961;232;40617;-59
2024/04/22 09:26:42;;;;;;;;;4.00;3.00;;;;;6.35;64.30;100739.85;112360;232;168672;-58
2024/04/22 09:29:31;;;;;;;;;3.00;3.00;;;;;6.22;64.35;100738.84;112907;232;40811;-54
2024/04/22 09:32:16;;;;;;;;;3.00;3.00;;;;;6.20;64.42;100747.26;112652;235;169184;-55
2024/04/22 09:34:55;;;;;;;;;3.00;3.00;;;;;6.13;64.29;100749.95;112824;232;39955;-55
2024/04/22 09:37:32;;;;;;;;;2.67;2.00;;;;;6.10;64.59;100747.79;112815;232;169120;-55
2024/04/22 09:40:11;;;;;;;;;2.00;2.00;;;;;6.08;64.42;100751.05;112534;233;40255;-59
2024/04/22 09:42:50;;;;;;;;;3.33;3.00;;;;;5.96;64.90;100755.21;112591;234;40485;-59
2024/04/22 09:45:26;;;;;;;;;3.00;3.00;;;;;6.13;64.87;100757.98;112425;234;168857;-55
2024/04/22 09:48:04;;;;;;;;;3.00;2.00;;;;;6.34;64.93;100753.97;112663;232;40213;-52
2024/04/22 09:50:48;;;;;;;;;3.00;2.00;;;;;6.45;64.75;100759.01;112394;236;168993;-55
2024/04/22 09:53:26;;;;;;;;;3.00;3.00;;;;;6.56;64.85;100759.77;112565;236;39793;-59
2024/04/22 09:56:10;;;;;;;;;4.00;3.00;;;;;6.62;64.80;100762.02;112456;233;169089;-60
2024/04/22 09:58:47;;;;;;;;;7.00;5.00;;;;;6.71;64.77;100766.06;112568;232;41603;-56
2024/04/22 10:01:24;;;;;;;;;7.00;6.00;;;;;6.73;64.76;100767.13;112600;232;41332;-54
2024/04/22 10:03:59;;;;;;;;;4.00;3.00;;;;;6.78;64.53;100768.05;112474;234;39780;-61
2024/04/22 10:06:39;;;;;;;;;4.00;3.00;;;;;6.70;63.96;100771.05;112645;236;40073;-60
2024/04/22 10:09:25;;;;;;;;;5.00;5.00;;;;;6.69;64.03;100774.23;112365;234;169084;-59
2024/04/22 10:12:06;;;;;;;;;3.00;3.00;;;;;6.58;63.83;100771.23;112659;236;40385;-59
2024/04/22 10:14:47;;;;;;;;;4.00;4.00;;;;;6.36;63.45;100772.63;112412;237;168993;-55
2024/04/22 10:17:24;;;;;;;;;3.00;3.00;;;;;6.40;63.66;100774.98;112569;236;39899;-53
2024/04/22 10:19:58;;;;;;;;;4.50;4.00;;;;;6.47;63.80;100777.80;112473;232;169277;-57
2024/04/22 10:22:38;;;;;;;;;4.00;4.00;;;;;6.44;63.75;100778.14;112731;232;41367;-57
2024/04/22 10:25:24;;;;;;;;;3.00;2.33;;;;;6.40;63.70;100777.27;112931;232;40697;-57
2024/04/22 10:27:59;;;;;;;;;2.75;2.00;;;;;6.46;63.64;100779.16;112500;232;40235;-58
2024/04/22 10:30:43;;;;;;;;;4.00;3.00;;;;;6.55;63.50;100783.13;112614;232;40014;-54
2024/04/22 10:33:17;;;;;;;;;4.00;4.00;;;;;6.62;63.66;100779.03;112400;232;169065;-58
2024/04/22 10:35:52;;;;;;;;;2.00;2.00;;;;;6.61;63.32;100776.48;112648;232;40497;-59
2024/04/22 10:38:32;;;;;;;;;4.00;4.00;;;;;6.57;63.37;100772.71;112471;236;169145;-59
2024/04/22 10:41:07;;;;;;;;;3.00;3.00;;;;;6.63;63.36;100778.73;112616;233;40282;-59
2024/04/22 10:43:50;;;;;;;;;2.00;2.00;;;;;6.74;63.38;100779.73;112450;232;169518;-56
2024/04/22 10:46:36;;;;;;;;;4.00;3.00;;;;;6.81;63.27;100781.17;112487;234;39869;-56
2024/04/22 10:49:16;;;;;;;;;3.00;3.00;;;;;6.79;62.76;100778.85;112556;236;40845;-59
2024/04/22 10:51:59;;;;;;;;;5.00;4.00;;;;;6.79;63.01;100781.90;112393;233;168590;-58
2024/04/22 10:54:37;;;;;;;;;3.75;3.25;;;;;6.79;62.99;100778.52;112489;234;41209;-58
2024/04/22 10:57:13;;;;;;;;;3.00;3.00;;;;;6.81;63.14;100773.79;112351;233;169181;-59
2024/04/22 10:59:55;;;;;;;;;4.00;3.00;;;;;6.75;62.66;100773.40;112626;232;40380;-57
2024/04/22 11:02:31;;;;;;;;;4.75;4.00;;;;;6.75;62.85;100771.62;112393;232;169198;-56
2024/04/22 11:05:10;;;;;;;;;4.00;3.00;;;;;6.83;62.85;100775.59;112577;233;39524;-54
2024/04/22 11:07:50;;;;;;;;;4.00;4.00;;;;;6.84;63.15;100774.57;112419;232;169229;-55
2024/04/22 11:10:36;;;;;;;;;4.00;4.00;;;;;6.88;62.84;100774.92;112568;232;42086;-55
2024/04/22 11:13:14;;;;;;;;;4.00;3.00;;;;;6.93;62.59;100777.11;112610;232;40554;-55
2024/04/22 11:15:49;;;;;;;;;5.00;4.00;;;;;6.95;62.48;100782.86;112351;233;169127;-55
2024/04/22 11:18:23;;;;;;;;;5.00;3.00;;;;;6.91;62.62;100788.17;112533;236;40814;-55
2024/04/22 11:21:06;;;;;;;;;3.00;2.00;;;;;6.93;62.54;100787.91;112364;236;169225;-55
2024/04/22 11:27:08;;;;;;;;;4.25;3.25;;;;;7.06;62.62;100787.52;112909;231;168735;-59
2024/04/22 11:29:43;;;;;;;;;5.00;4.00;;;;;7.18;62.37;100783.02;112954;230;39912;-55
2024/04/22 11:32:27;;;;;;;;;4.00;3.00;;;;;7.40;62.31;100781.05;112812;234;169177;-56
2024/04/22 11:35:09;;;;;;;;;6.00;5.00;;;;;7.55;61.97;100774.77;112962;234;40628;-57
2024/04/22 11:37:54;;;;;;;;;4.00;4.00;;;;;7.65;61.83;100777.85;112814;230;169188;-58
2024/04/22 11:40:29;;;;;;;;;4.00;4.00;;;;;7.83;61.63;100786.55;112990;231;41111;-56
2024/04/22 11:43:13;;;;;;;;;6.00;4.00;;;;;7.89;61.48;100781.60;112997;230;42280;-55
2024/04/22 11:45:53;;;;;;;;;4.33;4.00;;;;;7.99;61.13;100782.54;112801;231;168968;-57
2024/04/22 11:48:27;;;;;;;;;4.00;3.33;;;;;7.98;61.06;100781.16;113051;234;41518;-56
2024/04/22 11:51:06;;;;;;;;;4.00;4.00;;;;;8.03;61.16;100782.11;112798;230;168964;-56
2024/04/22 11:53:47;;;;;;;;;4.00;3.00;;;;;8.15;60.81;100778.79;112996;231;40829;-55
2024/04/22 11:56:30;;;;;;;;;4.00;3.00;;;;;8.13;60.20;100783.11;112781;231;169482;-56
2024/04/22 11:59:08;;;;;;;;;4.00;3.00;;;;;8.08;60.34;100785.59;112976;234;39846;-61
2024/04/22 12:01:48;;;;;;;;;3.00;3.00;;;;;8.08;60.11;100790.53;112800;231;168927;-60
2024/04/22 12:04:24;;;;;;;;;3.00;2.00;;;;;8.10;60.23;100785.77;112873;230;40184;-60
2024/04/22 12:07:06;;;;;;;;;4.00;4.00;;;;;8.16;60.12;100786.09;112933;234;40477;-61
2024/04/22 12:09:42;;;;;;;;;3.00;3.00;;;;;8.21;60.05;100785.33;112731;231;168946;-61
2024/04/22 12:12:22;;;;;;;;;4.00;4.00;;;;;8.18;59.75;100783.87;113006;230;40423;-62
2024/04/22 12:15:08;;;;;;;;;6.00;4.00;;;;;8.22;59.66;100789.71;112721;230;169300;-56
2024/04/22 12:17:46;;;;;;;;;4.00;3.33;;;;;8.14;59.96;100795.61;112971;231;40443;-59
2024/04/22 12:20:23;;;;;;;;;4.50;4.00;;;;;8.13;59.80;100798.27;112873;230;169245;-57
2024/04/22 12:23:04;;;;;;;;;5.00;4.00;;;;;8.01;59.79;100795.03;112962;230;42199;-55
2024/04/22 12:25:44;;;;;;;;;7.00;6.00;;;;;7.98;59.54;100794.84;112849;234;170511;-60
2024/04/22 12:28:26;;;;;;;;;7.00;5.00;;;;;7.86;59.43;100797.93;112753;230;41799;-60
2024/04/22 12:31:05;;;;;;;;;5.33;4.33;;;;;7.70;59.57;100797.66;112998;230;40107;-56